createdAt,value
2019-05-04T00:02:09.524Z,75.70
2019-05-04T00:04:59.651Z,75.20
2019-05-04T00:07:27.448Z,76.20
2019-05-04T00:10:14.647Z,75.60
2019-05-04T00:12:45.416Z,76.10
2019-05-04T00:15:14.473Z,76.20
2019-05-04T00:17:42.046Z,75.50
2019-05-04T00:20:09.546Z,75.40
2019-05-04T00:22:36.886Z,74.80
2019-05-04T00:25:04.910Z,75.40
2019-05-04T00:27:32.606Z,75.60
2019-05-04T00:30:00.192Z,75.20
2019-05-04T00:32:34.912Z,75.60
2019-05-04T00:35:16.119Z,75.10
2019-05-04T00:37:45.334Z,74.80
2019-05-04T00:40:14.458Z,74.20
2019-05-04T00:42:42.094Z,74.50
2019-05-04T00:45:09.556Z,74.40
2019-05-04T00:47:37.055Z,74.10
2019-05-04T00:50:04.926Z,74.30
2019-05-04T00:52:32.321Z,74.40
2019-05-04T00:54:59.896Z,75.00
2019-05-04T00:57:27.652Z,76.20
2019-05-04T00:59:55.175Z,76.40
2019-05-04T01:02:35.850Z,76.30
2019-05-04T01:05:04.747Z,76.50
2019-05-04T01:07:32.053Z,76.30
2019-05-04T01:09:59.840Z,76.00
2019-05-04T01:12:27.261Z,76.00
2019-05-04T01:14:55.230Z,75.80
2019-05-04T01:17:22.687Z,75.80
2019-05-04T01:19:52.007Z,76.00
2019-05-04T01:22:19.343Z,75.00
2019-05-04T01:24:46.815Z,75.30
2019-05-04T01:27:35.374Z,75.60
2019-05-04T01:30:04.744Z,75.70
2019-05-04T01:32:32.370Z,75.70
2019-05-04T01:35:05.235Z,75.70
2019-05-04T01:37:51.575Z,75.70
2019-05-04T01:40:26.907Z,75.60
2019-05-04T01:42:55.563Z,75.90
2019-05-04T01:45:24.424Z,75.50
2019-05-04T01:47:52.064Z,75.90
2019-05-04T01:50:19.840Z,76.00
2019-05-04T01:52:58.347Z,75.70
2019-05-04T01:55:25.837Z,75.80
2019-05-04T01:57:57.412Z,76.00
2019-05-04T02:00:27.465Z,76.20
2019-05-04T02:02:55.192Z,76.50
2019-05-04T02:05:23.021Z,76.90
2019-05-04T02:07:50.499Z,76.00
2019-05-04T02:10:17.932Z,75.50
2019-05-04T02:12:45.407Z,76.00
2019-05-04T02:15:14.352Z,76.20
2019-05-04T02:17:42.087Z,75.70
2019-05-04T02:20:09.471Z,75.60
2019-05-04T02:22:40.010Z,76.70
2019-05-04T02:25:19.082Z,77.70
2019-05-04T02:27:55.566Z,77.40
2019-05-04T02:30:37.007Z,76.30
2019-05-04T02:33:06.149Z,76.80
2019-05-04T02:35:35.559Z,77.10
2019-05-04T02:38:12.056Z,77.40
2019-05-04T02:40:45.675Z,76.70
2019-05-04T02:43:05.716Z,76.20
2019-05-04T02:45:35.733Z,76.30
2019-05-04T02:48:16.362Z,77.20
2019-05-04T02:50:50.989Z,77.50
2019-05-04T02:53:18.456Z,77.70
2019-05-04T02:55:46.086Z,78.00
2019-05-04T02:58:16.390Z,78.30
2019-05-04T03:00:45.597Z,78.20
2019-05-04T03:03:15.224Z,78.10
2019-05-04T03:05:41.565Z,78.90
2019-05-04T03:08:24.684Z,78.10
2019-05-04T03:10:38.345Z,78.60
2019-05-04T03:13:06.508Z,79.20
2019-05-04T03:15:36.442Z,78.90
2019-05-04T03:18:15.669Z,78.90
2019-05-04T03:21:15.366Z,78.40
2019-05-04T03:23:46.356Z,78.90
2019-05-04T03:26:15.669Z,80.40
2019-05-04T03:28:46.009Z,78.90
2019-05-04T03:31:18.112Z,79.30
2019-05-04T03:33:41.672Z,78.80
2019-05-04T03:36:15.306Z,80.20
2019-05-04T03:38:49.666Z,81.00
2019-05-04T03:41:07.698Z,80.60
2019-05-04T03:43:36.260Z,79.60
2019-05-04T03:46:32.279Z,79.70
2019-05-04T03:49:05.281Z,80.40
2019-05-04T03:51:35.343Z,80.50
2019-05-04T03:54:05.619Z,80.70
2019-05-04T03:56:34.911Z,79.60
2019-05-04T03:59:01.440Z,80.40
2019-05-04T04:01:28.809Z,81.00
2019-05-04T04:03:56.421Z,81.20
2019-05-04T04:06:25.193Z,80.10
2019-05-04T04:09:05.609Z,78.90
2019-05-04T04:11:22.317Z,78.80
2019-05-04T04:13:49.759Z,79.70
2019-05-04T04:16:27.331Z,79.20
2019-05-04T04:18:56.129Z,78.90
2019-05-04T04:21:26.488Z,79.80
2019-05-04T04:23:56.736Z,80.30
2019-05-04T04:26:49.704Z,80.20
2019-05-04T04:29:26.527Z,79.50
2019-05-04T04:31:55.868Z,80.70
2019-05-04T04:34:22.416Z,81.40
2019-05-04T04:36:49.868Z,81.50
2019-05-04T04:39:29.963Z,81.60
2019-05-04T04:41:46.873Z,82.30
2019-05-04T04:44:15.849Z,81.00
2019-05-04T04:46:46.206Z,81.20
2019-05-04T04:49:15.310Z,81.20
2019-05-04T04:51:45.671Z,81.60
2019-05-04T04:54:12.086Z,82.10
2019-05-04T04:56:42.318Z,81.60
2019-05-04T04:59:18.515Z,81.40
2019-05-04T05:01:48.221Z,81.10
2019-05-04T05:04:15.651Z,80.80
2019-05-04T05:06:45.461Z,80.30
2019-05-04T05:09:14.642Z,80.70
2019-05-04T05:11:41.735Z,80.50
2019-05-04T05:14:09.115Z,80.60
2019-05-04T05:16:36.601Z,80.40
2019-05-04T05:19:04.661Z,80.00
2019-05-04T05:21:34.311Z,80.20
2019-05-04T05:24:01.616Z,80.30
2019-05-04T05:26:29.103Z,79.60
2019-05-04T05:28:56.575Z,79.70
2019-05-04T05:31:49.427Z,79.60
2019-05-04T05:34:27.041Z,79.30
2019-05-04T05:36:55.422Z,79.30
2019-05-04T05:39:24.952Z,79.80
2019-05-04T05:41:57.872Z,79.60
2019-05-04T05:44:21.429Z,80.90
2019-05-04T05:47:15.859Z,81.20
2019-05-04T05:50:05.326Z,81.40
2019-05-04T05:52:55.521Z,81.60
2019-05-04T05:55:32.478Z,81.70
2019-05-04T05:58:06.286Z,82.10
2019-05-04T06:00:52.007Z,82.20
2019-05-04T06:03:32.266Z,82.30
2019-05-04T06:06:08.051Z,81.90
2019-05-04T06:08:34.506Z,82.30
2019-05-04T06:11:05.092Z,81.90
2019-05-04T06:13:50.522Z,81.80
2019-05-04T06:16:40.952Z,81.80
2019-05-04T06:19:15.393Z,81.40
2019-05-04T06:22:05.225Z,81.80
2019-05-04T06:24:39.746Z,81.20
2019-05-04T06:27:14.630Z,80.00
2019-05-04T06:29:48.165Z,79.90
2019-05-04T06:32:40.690Z,79.70
2019-05-04T06:35:25.852Z,79.80
2019-05-04T06:38:11.715Z,79.80
2019-05-04T06:40:52.181Z,79.70
2019-05-04T06:43:52.506Z,79.30
2019-05-04T06:46:36.039Z,78.80
2019-05-04T06:49:09.597Z,78.80
2019-05-04T06:51:55.242Z,77.30
2019-05-04T06:54:50.144Z,77.70
2019-05-04T06:57:40.582Z,75.90
2019-05-04T07:00:01.595Z,75.40
2019-05-04T07:02:30.351Z,75.70
2019-05-04T07:04:58.296Z,75.20
2019-05-04T07:07:26.355Z,74.40
2019-05-04T07:09:54.779Z,74.40
2019-05-04T07:12:25.971Z,74.00
2019-05-04T07:14:52.430Z,73.50
2019-05-04T07:17:20.028Z,73.90
2019-05-04T07:19:52.729Z,73.10
2019-05-04T07:22:17.057Z,73.80
2019-05-04T07:24:44.707Z,74.80
2019-05-04T07:27:33.405Z,74.40
2019-05-04T07:30:02.120Z,74.40
2019-05-04T07:32:36.822Z,74.50
2019-05-04T07:34:59.209Z,75.00
2019-05-04T07:37:49.367Z,74.70
2019-05-04T07:40:35.459Z,74.10
2019-05-04T07:43:04.852Z,72.80
2019-05-04T07:45:34.501Z,72.90
2019-05-04T07:48:06.914Z,73.50
2019-05-04T07:50:31.891Z,71.20
2019-05-04T07:53:04.557Z,69.90
2019-05-04T07:55:28.783Z,69.40
2019-05-04T07:57:59.759Z,69.20
2019-05-04T08:00:25.728Z,69.40
2019-05-04T08:02:55.301Z,70.00
2019-05-04T08:05:28.674Z,68.60
2019-05-04T08:07:54.903Z,68.50
2019-05-04T08:10:26.287Z,68.90
2019-05-04T08:13:00.410Z,67.80
2019-05-04T08:15:21.381Z,64.90
2019-05-04T08:17:49.084Z,65.30
2019-05-04T08:20:20.960Z,66.50
2019-05-04T08:22:59.037Z,66.40
2019-05-04T08:25:24.965Z,68.00
2019-05-04T08:27:54.733Z,69.20
2019-05-04T08:30:24.913Z,69.30
2019-05-04T08:32:52.258Z,68.70
2019-05-04T08:35:20.328Z,69.30
2019-05-04T08:37:48.940Z,69.80
2019-05-04T08:40:16.560Z,70.40
2019-05-04T08:42:47.923Z,69.80
2019-05-04T08:45:18.578Z,71.70
2019-05-04T08:48:04.596Z,70.70
2019-05-04T08:50:35.211Z,70.60
2019-05-04T08:53:04.692Z,72.10
2019-05-04T08:55:57.529Z,70.70
2019-05-04T08:58:50.482Z,73.00
2019-05-04T09:01:20.829Z,73.20
2019-05-04T09:03:51.111Z,73.20
2019-05-04T09:06:30.125Z,70.70
2019-05-04T09:08:48.107Z,69.90
2019-05-04T09:11:19.146Z,71.50
2019-05-04T09:13:50.711Z,75.10
2019-05-04T09:16:15.653Z,77.10
2019-05-04T09:18:46.997Z,80.60
2019-05-04T09:21:15.966Z,76.90
2019-05-04T09:23:44.381Z,77.80
2019-05-04T09:26:13.092Z,78.40
2019-05-04T09:28:43.603Z,79.20
2019-05-04T09:31:10.472Z,78.50
2019-05-04T09:33:40.493Z,78.10
2019-05-04T09:36:09.037Z,76.10
2019-05-04T09:38:40.641Z,73.30
2019-05-04T09:41:07.992Z,70.60
2019-05-04T09:43:40.932Z,74.70
2019-05-04T09:46:10.210Z,72.50
2019-05-04T09:48:39.615Z,69.60
2019-05-04T09:51:06.311Z,69.90
2019-05-04T09:53:38.240Z,70.30
2019-05-04T09:56:04.529Z,67.80
2019-05-04T09:58:32.079Z,67.30
2019-05-04T10:01:02.284Z,66.80
2019-05-04T10:03:29.952Z,65.90
2019-05-04T10:05:57.339Z,65.80
2019-05-04T10:08:25.623Z,65.80
2019-05-04T10:11:05.637Z,67.70
2019-05-04T10:13:40.274Z,68.20
2019-05-04T10:16:25.478Z,70.00
2019-05-04T10:18:55.188Z,71.40
2019-05-04T10:21:24.769Z,74.40
2019-05-04T10:23:52.028Z,74.80
2019-05-04T10:26:37.743Z,75.30
2019-05-04T10:29:05.964Z,76.50
2019-05-04T10:31:35.014Z,76.00
2019-05-04T10:34:04.547Z,76.00
2019-05-04T10:36:31.958Z,76.80
2019-05-04T10:38:59.508Z,74.70
2019-05-04T10:41:27.260Z,75.70
2019-05-04T10:43:54.866Z,76.80
2019-05-04T10:46:22.278Z,77.10
2019-05-04T10:48:50.023Z,76.10
2019-05-04T10:51:17.599Z,73.80
2019-05-04T10:53:45.379Z,73.50
2019-05-04T10:56:14.244Z,74.00
2019-05-04T10:58:41.958Z,74.00
2019-05-04T11:01:09.526Z,72.50
2019-05-04T11:03:36.956Z,73.00
2019-05-04T11:06:05.117Z,72.30
2019-05-04T11:08:35.077Z,72.00
2019-05-04T11:11:04.541Z,71.90
2019-05-04T11:13:32.084Z,72.90
2019-05-04T11:15:59.561Z,73.30
2019-05-04T11:18:27.546Z,75.30
2019-05-04T11:20:54.984Z,77.20
2019-05-04T11:23:22.459Z,73.70
2019-05-04T11:25:56.989Z,76.10
2019-05-04T11:28:27.235Z,76.20
2019-05-04T11:30:54.982Z,77.10
2019-05-04T11:33:24.519Z,77.60
2019-05-04T11:35:55.122Z,78.60
2019-05-04T11:38:22.291Z,77.80
2019-05-04T11:40:49.772Z,78.10
2019-05-04T11:43:29.001Z,79.70
2019-05-04T11:45:46.495Z,80.50
2019-05-04T11:48:14.537Z,80.60
2019-05-04T11:50:44.482Z,79.20
2019-05-04T11:53:11.526Z,78.80
2019-05-04T11:55:38.918Z,78.80
2019-05-04T11:58:06.538Z,77.90
2019-05-04T12:00:35.300Z,77.60
2019-05-04T12:03:04.812Z,78.50
2019-05-04T12:05:52.536Z,78.20
2019-05-04T12:08:51.728Z,78.30
2019-05-04T12:11:19.138Z,77.50
2019-05-04T12:13:49.104Z,77.60
2019-05-04T12:16:15.737Z,76.40
2019-05-04T12:18:44.533Z,78.30
2019-05-04T12:21:12.187Z,77.80
2019-05-04T12:23:39.756Z,75.90
2019-05-04T12:26:07.318Z,76.70
2019-05-04T12:28:35.487Z,74.80
2019-05-04T12:31:05.266Z,76.80
2019-05-04T12:33:32.626Z,76.40
2019-05-04T12:36:00.563Z,77.80
2019-05-04T12:38:28.007Z,78.10
2019-05-04T12:40:56.124Z,77.50
2019-05-04T12:43:24.442Z,76.90
2019-05-04T12:45:51.985Z,76.70
2019-05-04T12:48:21.522Z,76.10
2019-05-04T12:50:48.611Z,76.50
2019-05-04T12:53:16.088Z,75.30
2019-05-04T12:55:44.735Z,77.10
2019-05-04T12:58:14.664Z,75.90
2019-05-04T13:00:42.058Z,76.80
2019-05-04T13:03:09.600Z,76.60
2019-05-04T13:05:39.526Z,76.90
2019-05-04T13:08:06.414Z,74.80
2019-05-04T13:10:34.683Z,75.10
2019-05-04T13:13:02.154Z,75.20
2019-05-04T13:15:29.629Z,73.90
2019-05-04T13:18:06.038Z,74.60
2019-05-04T13:20:33.470Z,75.30
2019-05-04T13:23:01.140Z,73.30
2019-05-04T13:25:28.513Z,73.70
2019-05-04T13:27:55.884Z,73.20
2019-05-04T13:30:24.556Z,73.30
2019-05-04T13:32:52.012Z,72.30
2019-05-04T13:35:19.384Z,72.30
2019-05-04T13:37:46.780Z,71.70
2019-05-04T13:40:14.754Z,72.00
2019-05-04T13:42:42.313Z,72.60
2019-05-04T13:45:10.269Z,73.00
2019-05-04T13:47:37.797Z,72.10
2019-05-04T13:50:05.798Z,71.20
2019-05-04T13:52:35.183Z,71.30
2019-05-04T13:55:25.535Z,70.90
2019-05-04T13:57:57.735Z,71.30
2019-05-04T14:00:47.371Z,72.00
2019-05-04T14:03:26.270Z,71.30
2019-05-04T14:05:56.088Z,71.10
2019-05-04T14:08:24.864Z,72.60
2019-05-04T14:10:52.424Z,72.70
2019-05-04T14:13:19.895Z,72.60
2019-05-04T14:15:47.255Z,71.50
2019-05-04T14:18:14.915Z,72.50
2019-05-04T14:20:44.485Z,70.60
2019-05-04T14:23:11.555Z,72.60
2019-05-04T14:25:38.996Z,70.90
2019-05-04T14:28:06.451Z,71.60
2019-05-04T14:30:35.113Z,71.70
2019-05-04T14:33:04.818Z,70.60
2019-05-04T14:35:32.282Z,71.20
2019-05-04T14:37:59.723Z,71.30
2019-05-04T14:40:27.209Z,71.30
2019-05-04T14:42:56.580Z,72.90
2019-05-04T14:45:41.811Z,71.40
2019-05-04T14:48:27.802Z,70.70
2019-05-04T14:50:55.378Z,71.20
2019-05-04T14:53:24.389Z,72.20
2019-05-04T14:55:52.407Z,71.80
2019-05-04T14:58:20.419Z,72.10
2019-05-04T15:00:48.347Z,72.10
2019-05-04T15:03:16.107Z,71.50
2019-05-04T15:05:45.041Z,70.90
2019-05-04T15:08:14.793Z,71.80
2019-05-04T15:10:42.097Z,69.90
2019-05-04T15:13:09.742Z,70.10
2019-05-04T15:15:37.585Z,71.60
2019-05-04T15:18:05.397Z,71.90
2019-05-04T15:20:39.135Z,72.00
2019-05-04T15:23:06.707Z,71.90
2019-05-04T15:25:35.106Z,73.40
2019-05-04T15:28:04.631Z,73.60
2019-05-04T15:30:32.498Z,73.50
2019-05-04T15:33:00.107Z,73.10
2019-05-04T15:35:27.582Z,73.60
2019-05-04T15:37:55.242Z,72.90
2019-05-04T15:40:24.349Z,73.30
2019-05-04T15:42:51.981Z,72.60
2019-05-04T15:45:29.461Z,73.90
2019-05-04T15:48:08.024Z,73.60
2019-05-04T15:50:45.234Z,74.40
2019-05-04T15:53:26.037Z,75.30
2019-05-04T15:56:05.430Z,75.00
2019-05-04T15:58:42.686Z,75.30
2019-05-04T16:01:10.798Z,74.00
2019-05-04T16:03:38.229Z,74.50
2019-05-04T16:06:05.702Z,73.80
2019-05-04T16:08:33.424Z,73.10
2019-05-04T16:11:00.845Z,74.50
2019-05-04T16:13:28.640Z,74.70
2019-05-04T16:15:56.334Z,74.80
2019-05-04T16:18:24.396Z,74.00
2019-05-04T16:20:52.097Z,74.10
2019-05-04T16:23:19.461Z,73.70
2019-05-04T16:25:46.960Z,72.80
2019-05-04T16:28:16.133Z,74.50
2019-05-04T16:30:45.146Z,75.00
2019-05-04T16:33:14.178Z,73.90
2019-05-04T16:35:42.046Z,73.70
2019-05-04T16:38:09.463Z,74.60
2019-05-04T16:40:36.901Z,74.40
2019-05-04T16:43:04.593Z,74.10
2019-05-04T16:45:32.173Z,74.40
2019-05-04T16:47:59.952Z,75.60
2019-05-04T16:50:35.391Z,75.40
2019-05-04T16:53:12.043Z,75.50
2019-05-04T16:55:39.510Z,75.90
2019-05-04T16:58:07.375Z,73.80
2019-05-04T17:01:00.447Z,74.10
2019-05-04T17:03:31.515Z,74.60
2019-05-04T17:05:59.735Z,76.00
2019-05-04T17:08:27.678Z,77.80
2019-05-04T17:10:55.698Z,78.20
2019-05-04T17:13:25.146Z,78.20
2019-05-04T17:15:54.424Z,77.30
2019-05-04T17:18:24.586Z,76.60
2019-05-04T17:20:54.602Z,76.60
2019-05-04T17:23:22.370Z,77.30
2019-05-04T17:26:06.419Z,76.20
2019-05-04T17:28:35.146Z,76.40
2019-05-04T17:31:14.583Z,77.00
2019-05-04T17:33:44.300Z,77.20
2019-05-04T17:36:12.003Z,77.00
2019-05-04T17:38:40.472Z,76.50
2019-05-04T17:41:32.269Z,76.70
2019-05-04T17:44:17.457Z,76.20
2019-05-04T17:46:48.425Z,76.20
2019-05-04T17:49:18.736Z,77.10
2019-05-04T17:51:45.233Z,76.20
2019-05-04T17:54:15.079Z,75.90
2019-05-04T17:56:42.011Z,76.50
2019-05-04T17:59:09.851Z,76.00
2019-05-04T18:01:52.152Z,76.50
2019-05-04T18:04:23.254Z,76.70
2019-05-04T18:06:50.988Z,75.50
2019-05-04T18:09:19.012Z,75.60
2019-05-04T18:11:55.384Z,75.10
2019-05-04T18:14:51.670Z,75.00
2019-05-04T18:17:39.568Z,76.60
2019-05-04T18:20:08.417Z,76.20
2019-05-04T18:22:36.653Z,77.40
2019-05-04T18:25:06.031Z,76.20
2019-05-04T18:27:34.641Z,76.50
2019-05-04T18:30:05.212Z,76.40
2019-05-04T18:32:34.530Z,75.60
2019-05-04T18:35:05.216Z,75.10
2019-05-04T18:37:34.565Z,76.10
2019-05-04T18:40:03.565Z,75.80
2019-05-04T18:42:34.555Z,75.30
2019-05-04T18:45:14.199Z,75.90
2019-05-04T18:47:58.132Z,76.70
2019-05-04T18:50:26.286Z,77.10
2019-05-04T18:52:54.672Z,77.00
2019-05-04T18:55:22.734Z,75.60
2019-05-04T18:57:50.889Z,75.80
2019-05-04T19:00:34.564Z,75.80
2019-05-04T19:03:05.181Z,76.40
2019-05-04T19:05:34.410Z,77.50
2019-05-04T19:08:11.062Z,77.30
2019-05-04T19:10:39.545Z,76.50
2019-05-04T19:13:08.195Z,76.40
2019-05-04T19:15:36.177Z,76.80
2019-05-04T19:18:04.723Z,77.10
2019-05-04T19:20:32.749Z,76.50
2019-05-04T19:23:00.855Z,75.20
2019-05-04T19:25:29.703Z,76.20
2019-05-04T19:27:57.932Z,76.40
2019-05-04T19:30:26.072Z,75.80
2019-05-04T19:32:55.448Z,75.90
2019-05-04T19:35:25.464Z,75.40
2019-05-04T19:37:54.825Z,75.30
2019-05-04T19:40:37.000Z,75.20
2019-05-04T19:43:24.607Z,74.10
2019-05-04T19:46:18.241Z,75.40
2019-05-04T19:48:53.014Z,75.30
2019-05-04T19:51:20.952Z,75.90
2019-05-04T19:53:49.661Z,76.30
2019-05-04T19:56:17.946Z,75.70
2019-05-04T19:58:45.949Z,76.00
2019-05-04T20:01:14.805Z,76.40
2019-05-04T20:03:44.425Z,75.60
2019-05-04T20:06:13.443Z,75.80
2019-05-04T20:08:54.806Z,75.60
2019-05-04T20:11:27.300Z,74.70
2019-05-04T20:13:55.910Z,75.30
2019-05-04T20:16:26.282Z,75.30
2019-05-04T20:18:54.780Z,75.30
2019-05-04T20:21:24.613Z,75.60
2019-05-04T20:23:54.712Z,76.00
2019-05-04T20:26:22.143Z,75.70
2019-05-04T20:28:50.318Z,75.90
2019-05-04T20:31:18.191Z,75.70
2019-05-04T20:33:46.244Z,75.60
2019-05-04T20:36:14.599Z,75.90
2019-05-04T20:38:44.486Z,77.20
2019-05-04T20:41:12.363Z,77.20
2019-05-04T20:43:40.424Z,77.10
2019-05-04T20:46:28.021Z,77.10
2019-05-04T20:49:14.507Z,77.00
2019-05-04T20:51:42.859Z,76.90
2019-05-04T20:54:11.447Z,76.60
2019-05-04T20:56:39.839Z,77.30
2019-05-04T20:59:08.047Z,77.00
2019-05-04T21:01:55.681Z,77.00
2019-05-04T21:04:42.287Z,78.20
2019-05-04T21:07:10.666Z,78.20
2019-05-04T21:09:38.791Z,76.60
2019-05-04T21:12:06.938Z,77.20
2019-05-04T21:14:35.309Z,77.50
2019-05-04T21:17:17.684Z,77.00
2019-05-04T21:20:05.108Z,77.00
2019-05-04T21:22:35.464Z,76.70
2019-05-04T21:25:05.142Z,77.00
2019-05-04T21:27:33.553Z,77.40
2019-05-04T21:30:02.025Z,77.30
2019-05-04T21:32:30.197Z,77.00
2019-05-04T21:34:58.813Z,76.70
2019-05-04T21:37:27.132Z,76.70
2019-05-04T21:39:55.870Z,76.00
2019-05-04T21:42:24.972Z,76.10
2019-05-04T21:45:01.643Z,76.80
2019-05-04T21:47:58.331Z,77.40
2019-05-04T21:50:47.949Z,77.90
2019-05-04T21:53:16.306Z,77.40
2019-05-04T21:55:44.722Z,76.50
2019-05-04T21:58:15.030Z,76.80
2019-05-04T22:01:01.637Z,76.60
2019-05-04T22:03:39.164Z,76.20
2019-05-04T22:06:07.339Z,77.60
2019-05-04T22:08:35.677Z,77.60
2019-05-04T22:11:04.308Z,77.70
2019-05-04T22:13:34.764Z,77.70
2019-05-04T22:16:02.516Z,77.80
2019-05-04T22:18:30.671Z,77.60
2019-05-04T22:20:59.528Z,78.20
2019-05-04T22:23:27.800Z,77.90
2019-05-04T22:25:56.084Z,77.80
2019-05-04T22:28:24.638Z,77.10
2019-05-04T22:30:52.493Z,77.10
2019-05-04T22:33:20.651Z,76.00
2019-05-04T22:35:48.544Z,75.60
2019-05-04T22:38:21.663Z,75.10
2019-05-04T22:40:49.604Z,76.90
2019-05-04T22:43:18.104Z,76.60
2019-05-04T22:45:45.996Z,75.00
2019-05-04T22:48:13.811Z,75.40
2019-05-04T22:50:42.023Z,76.00
2019-05-04T22:53:17.230Z,76.40
2019-05-04T22:55:49.358Z,77.30
2019-05-04T22:58:26.267Z,78.20
2019-05-04T23:01:19.229Z,77.50
2019-05-04T23:03:54.057Z,77.90
2019-05-04T23:06:24.327Z,76.90
2019-05-04T23:08:52.478Z,75.90
2019-05-04T23:11:20.692Z,76.60
2019-05-04T23:13:48.603Z,77.20
2019-05-04T23:16:17.114Z,77.60
2019-05-04T23:18:48.920Z,77.50
2019-05-04T23:21:15.077Z,76.90
2019-05-04T23:23:44.352Z,77.50
2019-05-04T23:26:14.978Z,77.70
2019-05-04T23:28:45.192Z,77.50
2019-05-04T23:31:16.172Z,77.70
2019-05-04T23:33:44.781Z,77.90
2019-05-04T23:36:12.148Z,76.90
2019-05-04T23:38:40.310Z,77.40
2019-05-04T23:41:08.709Z,77.30
2019-05-04T23:43:36.788Z,77.10
2019-05-04T23:46:05.003Z,78.00
2019-05-04T23:48:34.611Z,77.50
2019-05-04T23:51:02.472Z,76.50
2019-05-04T23:53:30.106Z,77.20
2019-05-04T23:55:58.854Z,77.40
2019-05-04T23:58:54.722Z,77.70
